Weippe, ID (83553)

9:51 PM PDT on August 26, 2016 (GMT -0700)
APRSWXNET | | Change Station
Active Advisory: Fire Weather Warning

Elev 3069 ft 46.38 °N, 115.95 °W | Updated 28 minutes ago

Clear
Clear
59 °F
Feels Like 59 °F
N
0
Wind Variable Wind from WNW
Gusts 0.0 mph

Today
High -- | Low -- °F
--% Chance of Precip.
Yesterday
High -- | Low -- °F
Precip. -- in
Pressure 29.94 in
Visibility 10.0 miles
Clouds Clear
Dew Point 42 °F
Humidity 54%
Rainfall in
Snow Depth Not available.
5:57 AM 7:32 PM
Waning Crescent, 28% visible
METAR KGIC 270435Z AUTO 00000KT 10SM CLR 16/02 A2994 RMK AO1
Pressure 29.94 in
Visibility 10.0 miles
Clouds Clear
Dew Point 42 °F
Humidity 54%
Rainfall in
Snow Depth Not available.
5:57 AM 7:32 PM
Waning Crescent, 28% visible
METAR KGIC 270435Z AUTO 00000KT 10SM CLR 16/02 A2994 RMK AO1

10-Day Weather Forecast

Almanac

Astronomy

Aug. 26, 2016 Rise Set
Actual Time
Civil Twilight
Nautical Twilight
Astronomical Twilight
Moon
Length of Visible Light
Length of Day
Tomorrow will be .
, % of the Moon is Illuminated

Today's Extremes

State Highs State Lows

Community

WunderPhotos

Upload Photos

1,935,299 photos uploaded!

WunderBlog® & News

Nearby

Air Quality

  Air Quality AQ Index Pollutant
Not available.

Snow Depth

Station Depth Elevation

Earthquake Activity

City Distance Mag. Time & Date
Minimum magnitude displayed is 2.5.

Coastal Water Temperatures

Place Temperature

Stations

Nearby Weather Stations

Station Location Temp. Windchill Dew Point Humidity Wind Precip. Elev Updated Type
                   

Watches & Warnings

Fire Weather Warning
Issued: 8:28 AM PDT Aug. 26, 2016 – National Weather Service

... Red flag warning in effect from 1 PM to 9 PM PDT Saturday...

* affected area:
   fire zone 102 (palouse/hells canyon).

* Winds: west at 15-20 mph with gusts around 30 mph in the
afternoon and evening.

* Minimum humidities: 10-18 percent.